Porter, North Carolina
Current Conditions -  °F | °C
As of 5:55 PM on Tuesday 27 Jan 2015 (Local Time) from KVUJ Reporting Station
Clear Clear  
Wind Chill: 41°   Ceiling: Unl
Heat Index: 41°   Visibility: 10mi
Dew Point: 12°   Wind: 3mph
Humidity: 30%   Direction: 320°NW
Pressure: 29.92"   Gusts: NA
Location:  35.2152°N, 80.1663°W
Report Text: KVUJ 272255Z AUTO 32003KT 10SM CLR 05/M11 A2992 RMK AO2 T00511112
Loading
Personal Weather Stations






























Interactive Weather Map New forecast layout! Learn more

10-Day Weather Forecast

Advertisements
Track Severe Weather on mobile